Aviation Digital Data Service (ADDS)

Output produced by METARs form (1115 UTC 22 November 2017)
found at http://aviationweather.gov/adds/metars/
 
KSBY 220557Z 2206/2306 18006KT 6SM -SHRA OVC060 
     FM220800 19005KT 5SM -SHRA BR OVC035 
     FM221000 20004KT 2SM SHRA BR OVC015 
     FM221400 31009KT P6SM BKN025 
     FM221700 32013G20KT P6SM SCT040 
     FM230000 34007KT P6SM SKC